Time;durP1;ratioP1;P1;durP2;ratioP2;P2;SDS_P1;SDS_P2;PMS_P1;PMS_P2;Temp;Humidity;BMP_temperature;BMP_pressure;BME280_temperature;BME280_humidity;BME280_pressure;Samples;Min_cycle;Max_cycle;Signal;HPM_P1;HPM_P2
2022/05/21 00:01:08;;;;;;;20.58;4.40;;;13.40;99.90;;;;;;5034408;28;20395;-64
2022/05/21 00:03:34;;;;;;;19.80;4.72;;;13.40;99.90;;;;;;5061795;28;20037;-65
2022/05/21 00:05:59;;;;;;;20.77;4.32;;;13.40;99.90;;;;;;5035451;28;20076;-65
2022/05/21 00:08:25;;;;;;;17.08;3.17;;;13.40;99.90;;;;;;5033593;28;20032;-65
2022/05/21 00:10:51;;;;;;;21.55;4.03;;;13.30;99.90;;;;;;5033233;28;20030;-65
2022/05/21 00:13:16;;;;;;;19.52;3.42;;;13.30;99.90;;;;;;5032353;28;20373;-65
2022/05/21 00:15:44;;;;;;;19.02;4.43;;;13.20;99.90;;;;;;5033235;28;20029;-65
2022/05/21 00:18:09;;;;;;;25.08;4.13;;;13.20;99.90;;;;;;5033983;28;20028;-64
2022/05/21 00:20:47;;;;;;;16.17;4.20;;;13.10;99.90;;;;;;5031792;28;20025;-65
2022/05/21 00:23:26;;;;;;;25.55;4.53;;;13.20;99.90;;;;;;5048642;28;20044;-65
2022/05/21 00:26:14;;;;;;;19.23;3.45;;;13.20;99.90;;;;;;5033288;28;20486;-63
2022/05/21 00:28:42;;;;;;;17.15;3.63;;;13.20;99.90;;;;;;5033215;28;20488;-66
2022/05/21 00:31:10;;;;;;;19.10;4.18;;;13.20;99.90;;;;;;5033238;28;20037;-63
2022/05/21 00:33:36;;;;;;;20.42;3.85;;;13.20;99.90;;;;;;5039078;28;20072;-64
2022/05/21 00:36:03;;;;;;;25.65;4.28;;;13.20;99.90;;;;;;5032777;28;20067;-66
2022/05/21 00:38:28;;;;;;;19.40;3.28;;;13.20;99.90;;;;;;5043138;28;20033;-63
2022/05/21 00:40:55;;;;;;;19.55;4.20;;;13.20;99.90;;;;;;5051545;28;20086;-63
2022/05/21 00:43:52;;;;;;;21.20;4.18;;;13.20;99.90;;;;;;5033785;28;20037;-63
2022/05/21 00:46:30;;;;;;;23.58;4.25;;;13.20;99.90;;;;;;5032609;28;20036;-64
2022/05/21 00:49:14;;;;;;;17.73;3.80;;;13.20;99.90;;;;;;5032837;28;20088;-65
2022/05/21 00:51:45;;;;;;;20.27;3.83;;;13.20;99.90;;;;;;5032830;28;20086;-64
2022/05/21 00:54:13;;;;;;;18.02;4.45;;;13.20;99.90;;;;;;5032919;28;20029;-66
2022/05/21 00:56:48;;;;;;;20.48;4.53;;;13.10;99.90;;;;;;5031281;28;20026;-66
2022/05/21 01:02:02;;;;;;;15.05;3.83;;;13.10;99.90;;;;;;5032750;28;20128;-65
2022/05/21 01:04:30;;;;;;;23.48;4.30;;;13.20;99.90;;;;;;5032547;28;20488;-65
2022/05/21 01:06:58;;;;;;;20.10;4.40;;;13.10;99.90;;;;;;5035118;28;20105;-65
2022/05/21 01:09:24;;;;;;;19.77;4.45;;;13.10;99.90;;;;;;5049952;28;20027;-65
2022/05/21 01:11:49;;;;;;;21.92;4.95;;;13.10;99.90;;;;;;5033880;28;20017;-66
2022/05/21 01:14:17;;;;;;;17.80;3.85;;;13.10;99.90;;;;;;5031527;28;20060;-65
2022/05/21 01:16:44;;;;;;;22.67;4.45;;;13.20;99.90;;;;;;5036843;28;20025;-67
2022/05/21 01:19:10;;;;;;;15.20;3.80;;;13.20;99.90;;;;;;5036802;28;20041;-67
2022/05/21 01:21:37;;;;;;;27.08;4.40;;;13.20;99.90;;;;;;5036091;28;20056;-65
2022/05/21 01:24:07;;;;;;;18.55;4.35;;;13.10;99.90;;;;;;5052553;28;20493;-64
2022/05/21 01:26:34;;;;;;;18.85;4.35;;;13.10;99.90;;;;;;5051345;28;20043;-65
2022/05/21 01:29:04;;;;;;;22.17;3.75;;;13.10;99.90;;;;;;5039765;28;20092;-66
2022/05/21 01:31:32;;;;;;;22.30;4.47;;;13.10;99.90;;;;;;5049392;28;20048;-67
2022/05/21 01:33:59;;;;;;;20.67;4.15;;;13.20;99.90;;;;;;5036182;28;20021;-65
2022/05/21 01:36:24;;;;;;;18.80;3.97;;;13.10;99.90;;;;;;5051418;28;20079;-67
2022/05/21 01:38:50;;;;;;;25.80;4.50;;;13.20;99.90;;;;;;5036098;28;20029;-68
2022/05/21 01:41:16;;;;;;;28.15;5.03;;;13.20;99.90;;;;;;5039146;28;20040;-65
2022/05/21 01:46:27;;;;;;;21.83;4.55;;;13.20;99.90;;;;;;5036071;28;20036;-65
2022/05/21 01:48:53;;;;;;;24.40;4.45;;;13.10;99.90;;;;;;5035605;28;20039;-65
2022/05/21 01:51:19;;;;;;;29.45;5.50;;;13.20;99.90;;;;;;5037252;28;20100;-64
2022/05/21 01:53:45;;;;;;;25.23;4.55;;;13.20;99.90;;;;;;5036488;28;20025;-64
2022/05/21 01:56:13;;;;;;;23.35;4.95;;;13.20;99.90;;;;;;5035940;28;20061;-65
2022/05/21 01:58:39;;;;;;;23.05;4.03;;;13.20;99.90;;;;;;5036210;28;20030;-68
2022/05/21 02:01:06;;;;;;;21.33;4.10;;;13.20;99.90;;;;;;5050803;28;20503;-66
2022/05/21 02:03:32;;;;;;;22.90;4.47;;;13.20;99.90;;;;;;5043663;28;20078;-66
2022/05/21 02:05:58;;;;;;;20.80;5.45;;;13.20;99.90;;;;;;5039820;28;20021;-66
2022/05/21 02:08:24;;;;;;;25.58;5.88;;;13.20;99.90;;;;;;5071364;28;20021;-66
2022/05/21 02:10:51;;;;;;;30.80;6.28;;;13.20;99.90;;;;;;5070796;28;20021;-65
2022/05/21 02:13:25;;;;;;;26.95;4.90;;;13.20;99.90;;;;;;5055318;28;20021;-66
2022/05/21 02:15:51;;;;;;;29.08;5.68;;;13.20;99.90;;;;;;5055424;28;20103;-66
2022/05/21 02:18:17;;;;;;;28.77;6.03;;;13.20;99.90;;;;;;5055677;28;20044;-65
2022/05/21 02:20:43;;;;;;;28.25;5.95;;;13.10;99.90;;;;;;5055171;28;20229;-65
2022/05/21 02:23:11;;;;;;;27.13;4.82;;;13.10;99.90;;;;;;5056198;28;20508;-65
2022/05/21 02:25:37;;;;;;;27.73;5.88;;;13.10;99.90;;;;;;5045978;28;20473;-66
2022/05/21 02:28:02;;;;;;;23.83;3.78;;;13.10;99.90;;;;;;5033979;28;20032;-66
2022/05/21 02:30:28;;;;;;;19.50;3.80;;;13.10;99.90;;;;;;5052325;28;20438;-67
2022/05/21 02:32:54;;;;;;;18.95;4.13;;;13.10;99.90;;;;;;5054746;28;20036;-66
2022/05/21 02:35:20;;;;;;;22.98;5.10;;;13.10;99.90;;;;;;5054405;28;20044;-66
2022/05/21 02:40:30;;;;;;;23.83;4.47;;;13.10;99.90;;;;;;5054859;28;20031;-66
2022/05/21 02:42:56;;;;;;;27.85;5.97;;;13.10;99.90;;;;;;5052058;28;20416;-65
2022/05/21 02:45:25;;;;;;;27.10;5.15;;;13.10;99.90;;;;;;5054915;28;20067;-67
2022/05/21 02:47:52;;;;;;;24.85;4.00;;;13.10;99.90;;;;;;5040851;28;20025;-66
2022/05/21 02:50:20;;;;;;;24.88;4.15;;;13.10;99.90;;;;;;5034857;28;20040;-65
2022/05/21 02:52:46;;;;;;;23.60;4.65;;;13.10;99.90;;;;;;5049431;28;20032;-64
2022/05/21 02:55:13;;;;;;;26.33;4.40;;;13.10;99.90;;;;;;5054460;28;20052;-68
2022/05/21 02:57:39;;;;;;;25.75;4.32;;;13.10;99.90;;;;;;5053466;28;20036;-66
2022/05/21 03:00:09;;;;;;;23.02;4.57;;;13.10;99.90;;;;;;5054052;28;20024;-66
2022/05/21 03:02:35;;;;;;;22.15;3.90;;;13.00;99.90;;;;;;5051420;28;20044;-68
2022/05/21 03:05:02;;;;;;;22.88;3.53;;;13.00;99.90;;;;;;5043405;28;20044;-67
2022/05/21 03:07:27;;;;;;;23.70;3.90;;;13.00;99.90;;;;;;5052554;28;20373;-68
2022/05/21 03:12:37;;;;;;;21.40;4.10;;;13.10;99.90;;;;;;5053065;28;20081;-65
2022/05/21 03:15:04;;;;;;;25.45;3.75;;;13.10;99.90;;;;;;5052899;28;20033;-65
2022/05/21 03:17:29;;;;;;;21.08;4.30;;;13.00;99.90;;;;;;5052177;28;20033;-65
2022/05/21 03:19:55;;;;;;;28.00;4.00;;;13.00;99.90;;;;;;5052602;28;20032;-64
2022/05/21 03:22:21;;;;;;;22.80;4.03;;;13.10;99.90;;;;;;5053174;28;20021;-65
2022/05/21 03:24:47;;;;;;;23.80;4.03;;;13.00;99.90;;;;;;5046257;28;20443;-67
2022/05/21 03:27:12;;;;;;;24.00;3.65;;;13.00;99.90;;;;;;5046488;28;20029;-64
2022/05/21 03:29:38;;;;;;;24.63;3.80;;;13.00;99.90;;;;;;5051358;28;20025;-66
2022/05/21 03:32:04;;;;;;;21.15;4.03;;;13.00;99.90;;;;;;5053440;28;20405;-64
2022/05/21 03:34:30;;;;;;;22.40;4.20;;;13.00;99.90;;;;;;5053054;28;20032;-67
2022/05/21 03:36:56;;;;;;;22.38;3.45;;;13.00;99.90;;;;;;5053019;28;20029;-64
2022/05/21 03:39:22;;;;;;;26.23;3.97;;;13.00;99.90;;;;;;5052213;28;20412;-67
2022/05/21 03:41:47;;;;;;;18.08;3.63;;;13.00;99.90;;;;;;5052243;28;20033;-67
2022/05/21 03:44:13;;;;;;;17.70;3.53;;;13.00;99.90;;;;;;5052821;28;20033;-67
2022/05/21 03:46:39;;;;;;;17.77;3.50;;;13.00;99.90;;;;;;5051749;28;20029;-64
2022/05/21 03:49:05;;;;;;;23.23;5.30;;;13.00;99.90;;;;;;5050389;28;20175;-66
2022/05/21 03:51:31;;;;;;;19.95;4.50;;;13.00;99.90;;;;;;5045912;28;20036;-64
2022/05/21 03:53:57;;;;;;;23.30;4.72;;;13.00;99.90;;;;;;5052437;28;20033;-66
2022/05/21 03:56:23;;;;;;;20.38;4.35;;;13.00;99.90;;;;;;5052066;28;20377;-64
2022/05/21 03:58:48;;;;;;;19.52;3.72;;;13.10;99.90;;;;;;5052316;28;20057;-65
2022/05/21 04:01:14;;;;;;;15.77;3.55;;;13.00;99.90;;;;;;5052871;28;20016;-64
2022/05/21 04:03:40;;;;;;;24.52;4.03;;;13.10;99.90;;;;;;5053239;28;20045;-66
2022/05/21 04:06:06;;;;;;;18.70;4.47;;;13.10;99.90;;;;;;5056571;28;20025;-66
2022/05/21 04:08:31;;;;;;;17.42;3.85;;;13.10;99.90;;;;;;5068303;28;20078;-63
2022/05/21 04:10:57;;;;;;;17.90;3.47;;;13.10;99.90;;;;;;5056294;28;20080;-65
2022/05/21 04:13:22;;;;;;;20.65;3.92;;;13.10;99.90;;;;;;5052197;28;20031;-64
2022/05/21 04:15:48;;;;;;;17.23;3.47;;;13.10;99.90;;;;;;5052953;28;20021;-67
2022/05/21 04:18:13;;;;;;;16.42;4.45;;;13.10;99.90;;;;;;5053156;28;20108;-65
2022/05/21 04:20:39;;;;;;;17.85;3.65;;;13.20;99.90;;;;;;5051863;28;20478;-68
2022/05/21 04:23:05;;;;;;;23.55;4.28;;;13.20;99.90;;;;;;5052437;28;20052;-67
2022/05/21 04:25:31;;;;;;;15.60;3.05;;;13.30;99.90;;;;;;5051979;28;20538;-64
2022/05/21 04:27:57;;;;;;;17.58;3.55;;;13.30;99.90;;;;;;5052083;28;20028;-63
2022/05/21 04:30:28;;;;;;;15.45;3.05;;;13.30;99.90;;;;;;5042655;28;20041;-66
2022/05/21 04:32:56;;;;;;;19.48;3.80;;;13.40;99.90;;;;;;5047556;28;20396;-65
2022/05/21 04:35:23;;;;;;;22.77;4.45;;;13.40;99.90;;;;;;5050630;28;20047;-66
2022/05/21 04:37:50;;;;;;;15.85;3.60;;;13.40;99.90;;;;;;5052734;28;20043;-66
2022/05/21 04:40:19;;;;;;;23.65;6.38;;;13.40;99.90;;;;;;5052526;28;20103;-68
2022/05/21 04:42:45;;;;;;;24.58;3.65;;;13.40;99.90;;;;;;5052104;28;20086;-66
2022/05/21 04:45:12;;;;;;;20.05;3.90;;;13.40;99.90;;;;;;5051653;28;20027;-66
2022/05/21 04:47:38;;;;;;;14.55;3.42;;;13.40;99.90;;;;;;5050183;28;20028;-65
2022/05/21 04:50:07;;;;;;;15.57;4.90;;;13.40;99.90;;;;;;5050010;28;20361;-64
2022/05/21 04:52:33;;;;;;;19.25;3.53;;;13.40;99.90;;;;;;5052347;28;20120;-67
2022/05/21 04:55:00;;;;;;;23.42;3.85;;;13.30;99.90;;;;;;5050519;28;20108;-65
2022/05/21 04:57:25;;;;;;;21.67;5.00;;;13.30;99.90;;;;;;5052365;28;20024;-64
2022/05/21 04:59:51;;;;;;;15.48;4.03;;;13.30;99.90;;;;;;5052736;28;20101;-64
2022/05/21 05:02:17;;;;;;;21.58;4.35;;;13.30;99.90;;;;;;5050837;28;20021;-64
2022/05/21 05:04:42;;;;;;;21.52;4.93;;;13.40;99.90;;;;;;5051941;28;20366;-63
2022/05/21 05:07:09;;;;;;;15.32;2.97;;;13.40;99.90;;;;;;5052430;28;20025;-65
2022/05/21 05:09:39;;;;;;;17.92;4.00;;;13.40;99.90;;;;;;5051970;28;20052;-65
2022/05/21 05:12:06;;;;;;;25.00;4.32;;;13.50;99.90;;;;;;5051622;28;20047;-66
2022/05/21 05:14:31;;;;;;;22.95;3.92;;;13.50;99.90;;;;;;5051120;28;20112;-66
2022/05/21 05:16:57;;;;;;;18.25;3.67;;;13.60;99.90;;;;;;5051638;28;20474;-66
2022/05/21 05:19:22;;;;;;;23.75;3.13;;;13.70;99.90;;;;;;5051689;28;20417;-66
2022/05/21 05:21:48;;;;;;;18.77;3.10;;;13.70;99.90;;;;;;5051743;28;20025;-66
2022/05/21 05:24:14;;;;;;;15.88;3.67;;;13.70;99.90;;;;;;5051020;28;20035;-66
2022/05/21 05:26:39;;;;;;;16.17;3.55;;;13.80;99.90;;;;;;5051979;28;20377;-63
2022/05/21 05:29:05;;;;;;;15.50;2.92;;;13.90;99.90;;;;;;5049110;28;20449;-64
2022/05/21 05:31:31;;;;;;;19.90;3.47;;;13.90;99.90;;;;;;5049917;28;20044;-65
2022/05/21 05:33:57;;;;;;;17.30;3.30;;;14.00;99.90;;;;;;5050731;28;20029;-64
2022/05/21 05:36:23;;;;;;;17.95;3.58;;;14.10;99.90;;;;;;5051999;28;20033;-64
2022/05/21 05:38:48;;;;;;;18.35;3.83;;;14.20;99.90;;;;;;5052439;28;20047;-65
2022/05/21 05:41:14;;;;;;;23.23;3.35;;;14.30;99.90;;;;;;5051254;28;20480;-64
2022/05/21 05:43:39;;;;;;;15.77;3.53;;;14.40;99.90;;;;;;5051399;28;20485;-65
2022/05/21 05:46:05;;;;;;;16.45;2.75;;;14.60;99.90;;;;;;5051523;28;20040;-65
2022/05/21 05:48:31;;;;;;;17.23;3.30;;;14.80;99.90;;;;;;5051485;28;20524;-66
2022/05/21 05:50:59;;;;;;;17.52;3.47;;;15.10;99.90;;;;;;5052300;28;20373;-64
2022/05/21 05:53:24;;;;;;;13.43;2.75;;;15.50;99.90;;;;;;5050983;28;20363;-64
2022/05/21 05:55:50;;;;;;;18.60;3.15;;;16.00;99.90;;;;;;5050077;28;20025;-67
2022/05/21 06:01:00;;;;;;;17.05;3.30;;;17.30;99.90;;;;;;5052962;28;20415;-65
2022/05/21 06:03:26;;;;;;;15.70;3.03;;;17.90;99.90;;;;;;5055124;28;20041;-67
2022/05/21 06:05:53;;;;;;;15.65;3.30;;;18.40;99.90;;;;;;5053216;28;20024;-64
2022/05/21 06:08:19;;;;;;;18.17;3.00;;;19.00;99.90;;;;;;5053873;28;20070;-64
2022/05/21 06:10:45;;;;;;;15.18;3.05;;;19.50;99.90;;;;;;5054627;28;20028;-64
2022/05/21 06:13:11;;;;;;;16.50;2.90;;;19.80;99.90;;;;;;5055499;28;20024;-65
2022/05/21 06:15:38;;;;;;;15.35;2.95;;;20.50;99.90;;;;;;5055254;28;20037;-65
2022/05/21 06:18:12;;;;;;;19.20;2.45;;;20.70;99.90;;;;;;5055000;28;20555;-66
2022/05/21 06:20:38;;;;;;;17.58;3.40;;;21.10;99.90;;;;;;5055117;28;20036;-65
2022/05/21 06:23:04;;;;;;;16.88;2.85;;;21.30;99.90;;;;;;5055219;28;20090;-66
2022/05/21 06:25:33;;;;;;;16.75;3.38;;;21.70;99.90;;;;;;5054965;28;20025;-64
2022/05/21 06:28:00;;;;;;;21.98;2.88;;;22.00;99.90;;;;;;5055309;28;20078;-68
2022/05/21 06:30:27;;;;;;;16.20;3.10;;;22.10;99.90;;;;;;5041995;28;20049;-64
2022/05/21 06:32:53;;;;;;;12.52;2.53;;;22.20;99.40;;;;;;5035343;28;20029;-67
2022/05/21 06:35:19;;;;;;;21.63;3.53;;;22.40;99.60;;;;;;5047222;28;20480;-65
2022/05/21 06:37:45;;;;;;;11.43;2.60;;;22.50;98.90;;;;;;5050721;28;20056;-65
2022/05/21 06:40:13;;;;;;;16.08;3.33;;;22.50;98.70;;;;;;5053548;28;20489;-64
2022/05/21 06:42:39;;;;;;;13.05;2.65;;;22.50;98.60;;;;;;5054810;28;20033;-64
2022/05/21 06:45:06;;;;;;;18.45;2.70;;;22.50;98.40;;;;;;5054257;28;20044;-66
2022/05/21 06:47:32;;;;;;;13.63;2.85;;;22.50;98.40;;;;;;5054683;28;20100;-64
2022/05/21 06:49:59;;;;;;;16.45;3.38;;;22.50;98.30;;;;;;5054348;28;20029;-64
2022/05/21 06:52:26;;;;;;;15.95;2.83;;;22.60;98.20;;;;;;5054725;28;20028;-66
2022/05/21 06:54:53;;;;;;;11.55;2.47;;;22.80;98.20;;;;;;5053804;28;20024;-65
2022/05/21 06:57:19;;;;;;;14.10;2.58;;;22.70;97.70;;;;;;5053061;28;20021;-66
2022/05/21 06:59:45;;;;;;;23.10;3.17;;;22.30;97.90;;;;;;5054562;28;20044;-67
2022/05/21 07:02:11;;;;;;;15.60;3.22;;;22.00;98.30;;;;;;5054093;28;20029;-66
2022/05/21 07:07:32;;;;;;;13.57;3.08;;;22.20;98.80;;;;;;5046739;28;20079;-66
2022/05/21 07:10:00;;;;;;;18.35;3.20;;;22.40;98.40;;;;;;5054410;28;20036;-66
2022/05/21 07:12:26;;;;;;;13.10;2.55;;;22.20;98.20;;;;;;5065485;28;20020;-64
2022/05/21 07:14:51;;;;;;;14.65;3.10;;;22.20;98.40;;;;;;5074094;28;20012;-67
2022/05/21 07:17:17;;;;;;;19.00;3.72;;;22.30;98.20;;;;;;5073560;28;20056;-64
2022/05/21 07:19:43;;;;;;;12.50;3.08;;;22.30;97.90;;;;;;5067248;28;20087;-64
2022/05/21 07:22:09;;;;;;;15.88;3.33;;;22.10;98.10;;;;;;5052140;28;20037;-66
2022/05/21 07:24:42;;;;;;;17.65;3.42;;;22.00;98.00;;;;;;5054095;28;20033;-65
2022/05/21 07:27:12;;;;;;;16.35;3.13;;;21.90;98.40;;;;;;5053620;28;20025;-67
2022/05/21 07:29:39;;;;;;;19.00;3.67;;;21.80;98.80;;;;;;5053742;28;20021;-67
2022/05/21 07:32:07;;;;;;;21.73;4.47;;;21.70;98.70;;;;;;5052232;28;20032;-66
2022/05/21 07:34:32;;;;;;;11.85;3.22;;;21.50;98.90;;;;;;5053675;28;20025;-66
2022/05/21 07:36:58;;;;;;;14.93;3.05;;;21.20;99.30;;;;;;5039607;28;20431;-66
2022/05/21 07:39:23;;;;;;;15.23;3.45;;;20.90;99.80;;;;;;5034862;28;20041;-66
2022/05/21 07:41:49;;;;;;;18.95;4.18;;;20.70;99.90;;;;;;5052188;28;20047;-65
2022/05/21 07:44:14;;;;;;;15.77;3.20;;;20.60;99.90;;;;;;5051879;28;20038;-67
2022/05/21 07:46:40;;;;;;;20.38;3.75;;;20.70;99.90;;;;;;5052098;28;20053;-65
2022/05/21 07:49:05;;;;;;;17.05;4.10;;;20.60;99.90;;;;;;5051936;28;20078;-64
2022/05/21 07:51:32;;;;;;;17.55;3.40;;;20.30;99.90;;;;;;5050477;28;20020;-65
2022/05/21 07:53:58;;;;;;;18.65;3.55;;;20.00;99.90;;;;;;5053277;28;20468;-67
2022/05/21 07:56:23;;;;;;;24.10;3.28;;;19.70;99.90;;;;;;5052759;28;20033;-67
2022/05/21 07:58:49;;;;;;;23.02;3.65;;;19.60;99.90;;;;;;5053171;28;20025;-64
2022/05/21 08:01:16;;;;;;;15.98;3.95;;;19.70;99.90;;;;;;5053503;28;20025;-65
2022/05/21 08:03:42;;;;;;;20.20;4.53;;;20.10;99.90;;;;;;5052855;28;20033;-64
2022/05/21 08:06:08;;;;;;;17.17;3.72;;;20.50;99.90;;;;;;5052649;28;20047;-67
2022/05/21 08:08:34;;;;;;;14.63;2.80;;;20.80;99.90;;;;;;5038184;28;20171;-66
2022/05/21 08:11:00;;;;;;;17.88;3.25;;;21.00;99.90;;;;;;5033563;28;20022;-66
2022/05/21 08:13:26;;;;;;;18.52;3.13;;;21.00;99.90;;;;;;5045783;28;20025;-64
2022/05/21 08:15:51;;;;;;;15.63;2.85;;;21.30;99.90;;;;;;5053301;28;20092;-65
2022/05/21 08:18:17;;;;;;;12.95;2.65;;;21.80;99.40;;;;;;5052179;28;20031;-66
2022/05/21 08:20:42;;;;;;;16.73;3.38;;;22.50;98.70;;;;;;5052519;28;20071;-65
2022/05/21 08:28:42;;;;;;;18.05;3.92;;;25.10;95.70;;;;;;5052294;28;20044;-65
2022/05/21 08:31:08;;;;;;;18.20;3.13;;;25.90;94.20;;;;;;5048102;28;20453;-66
2022/05/21 08:33:33;;;;;;;17.67;4.38;;;26.60;93.50;;;;;;5051673;28;20037;-65
2022/05/21 08:35:59;;;;;;;15.05;3.42;;;27.00;92.30;;;;;;5052623;28;20040;-66
2022/05/21 08:38:26;;;;;;;14.98;4.25;;;27.00;92.10;;;;;;5049502;28;20033;-65
2022/05/21 08:40:56;;;;;;;17.20;3.90;;;27.00;91.40;;;;;;5051359;28;20029;-65
2022/05/21 08:43:36;;;;;;;13.68;3.55;;;27.00;91.40;;;;;;5051822;28;20029;-65
2022/05/21 08:46:26;;;;;;;16.13;4.63;;;27.20;90.60;;;;;;5052279;28;20028;-67
2022/05/21 08:48:59;;;;;;;16.85;3.65;;;26.90;90.80;;;;;;5052070;28;20105;-64
2022/05/21 08:51:29;;;;;;;15.02;3.50;;;26.50;91.00;;;;;;5051167;28;20085;-66
2022/05/21 08:53:56;;;;;;;14.00;4.55;;;26.00;91.40;;;;;;5051244;28;20033;-67
2022/05/21 08:56:24;;;;;;;17.50;3.30;;;25.50;92.00;;;;;;5049167;28;20085;-64
2022/05/21 08:58:57;;;;;;;18.23;3.78;;;25.50;92.20;;;;;;5038793;28;20032;-65
2022/05/21 09:01:25;;;;;;;18.63;4.68;;;25.60;92.30;;;;;;5051061;28;20158;-65
2022/05/21 09:03:54;;;;;;;14.95;3.92;;;25.60;92.40;;;;;;5051917;28;20033;-67
2022/05/21 09:06:32;;;;;;;16.80;3.45;;;25.70;92.20;;;;;;5052088;28;20021;-66
2022/05/21 09:09:03;;;;;;;15.70;2.92;;;26.20;91.70;;;;;;5051617;28;20076;-65
2022/05/21 09:11:35;;;;;;;15.35;3.60;;;26.60;90.80;;;;;;5050345;28;20025;-64
2022/05/21 09:14:22;;;;;;;19.08;3.55;;;27.20;90.60;;;;;;5052354;28;20025;-66
2022/05/21 09:16:56;;;;;;;15.68;3.28;;;27.40;90.00;;;;;;5051738;28;20025;-64
2022/05/21 09:19:32;;;;;;;15.15;3.10;;;27.40;89.70;;;;;;5052379;28;20013;-65
2022/05/21 09:22:04;;;;;;;11.93;2.70;;;27.40;89.20;;;;;;5051961;28;20025;-65
2022/05/21 09:24:42;;;;;;;16.98;3.22;;;27.00;89.40;;;;;;5051796;28;20090;-66
2022/05/21 09:27:22;;;;;;;10.40;2.45;;;26.90;89.60;;;;;;5051588;28;20071;-64
2022/05/21 09:29:51;;;;;;;17.00;3.20;;;26.80;89.20;;;;;;5051790;28;20368;-66
2022/05/21 09:32:20;;;;;;;16.85;3.67;;;26.60;89.70;;;;;;5051714;28;20500;-65
2022/05/21 09:35:06;;;;;;;16.95;3.78;;;26.40;90.10;;;;;;5052267;28;20105;-64
2022/05/21 09:37:32;;;;;;;17.52;3.70;;;26.50;90.10;;;;;;5055251;28;20524;-64
2022/05/21 09:39:58;;;;;;;18.75;3.20;;;26.60;90.00;;;;;;5055347;28;20101;-65
2022/05/21 09:45:24;;;;;;;10.48;2.50;;;26.60;89.20;;;;;;5055370;28;20445;-66
2022/05/21 09:47:51;;;;;;;15.40;3.15;;;26.90;88.80;;;;;;5055526;28;20087;-64
2022/05/21 09:50:23;;;;;;;15.45;3.80;;;27.10;90.00;;;;;;5055143;28;20079;-66
2022/05/21 09:52:49;;;;;;;16.63;3.28;;;26.90;88.50;;;;;;5055958;28;20033;-65
2022/05/21 09:55:26;;;;;;;18.42;3.38;;;26.60;88.40;;;;;;5053141;28;20483;-64
2022/05/21 09:57:52;;;;;;;15.23;3.42;;;26.10;89.90;;;;;;5035870;28;20022;-64
2022/05/21 10:00:33;;;;;;;19.58;3.47;;;25.50;90.20;;;;;;5044233;28;20021;-65
2022/05/21 10:03:01;;;;;;;14.40;3.15;;;24.90;91.10;;;;;;5055448;28;20037;-64
2022/05/21 10:05:47;;;;;;;13.85;2.92;;;24.70;91.60;;;;;;5054991;28;20025;-65
2022/05/21 10:11:25;;;;;;;16.05;3.80;;;24.20;91.80;;;;;;5055412;28;20102;-66
2022/05/21 10:13:58;;;;;;;11.45;2.90;;;24.20;92.20;;;;;;5055323;28;20449;-65
2022/05/21 10:16:33;;;;;;;17.10;4.32;;;24.10;92.20;;;;;;5055869;28;20479;-66
2022/05/21 10:19:24;;;;;;;16.65;3.28;;;23.90;92.70;;;;;;5068135;28;20051;-66
2022/05/21 10:22:20;;;;;;;15.40;3.53;;;24.00;92.60;;;;;;5075157;28;20024;-65
2022/05/21 10:25:07;;;;;;;16.95;3.40;;;24.10;92.50;;;;;;5070041;28;20369;-64
2022/05/21 10:28:04;;;;;;;16.65;2.85;;;24.10;92.40;;;;;;5035043;28;20060;-64
2022/05/21 10:30:44;;;;;;;14.05;3.08;;;24.20;92.10;;;;;;5034890;28;20049;-66
2022/05/21 10:33:42;;;;;;;18.25;3.20;;;24.50;92.10;;;;;;5043336;28;20402;-65
2022/05/21 10:36:16;;;;;;;19.38;3.40;;;24.70;92.00;;;;;;5069561;28;20017;-65
2022/05/21 10:39:06;;;;;;;14.52;3.22;;;24.50;91.50;;;;;;5054747;28;20098;-66
2022/05/21 10:41:45;;;;;;;19.52;3.40;;;24.10;91.80;;;;;;5054609;28;20018;-64
2022/05/21 10:44:16;;;;;;;13.18;2.80;;;24.00;92.40;;;;;;5054522;28;20112;-64
2022/05/21 10:47:16;;;;;;;14.18;2.85;;;24.00;92.20;;;;;;5053920;28;20088;-64
2022/05/21 10:50:20;;;;;;;15.18;3.35;;;24.00;92.20;;;;;;5054862;28;20056;-64
2022/05/21 10:53:42;;;;;;;21.63;3.50;;;23.90;92.40;;;;;;5033375;28;20021;-64
2022/05/21 10:56:29;;;;;;;18.95;2.95;;;24.00;93.20;;;;;;5015097;28;20022;-62
2022/05/21 10:59:16;;;;;;;14.63;2.80;;;24.00;92.80;;;;;;5031423;28;20037;-66
2022/05/21 11:02:12;;;;;;;14.55;2.97;;;23.90;92.80;;;;;;5050912;28;20037;-65
2022/05/21 11:05:08;;;;;;;15.75;3.47;;;23.80;92.50;;;;;;5053845;28;20487;-63
2022/05/21 11:07:57;;;;;;;14.43;3.08;;;23.60;92.90;;;;;;5053580;28;20036;-64
2022/05/21 11:10:28;;;;;;;18.67;2.92;;;23.50;93.10;;;;;;5045569;28;20022;-64
2022/05/21 11:12:59;;;;;;;14.93;2.80;;;23.40;93.10;;;;;;5034838;28;20056;-64
2022/05/21 11:15:28;;;;;;;15.00;2.95;;;23.70;93.50;;;;;;5045894;28;20028;-64
2022/05/21 11:18:09;;;;;;;16.08;3.10;;;24.40;92.60;;;;;;5053543;28;20029;-64
2022/05/21 11:20:43;;;;;;;18.35;3.63;;;25.00;92.10;;;;;;5034884;28;20037;-64
2022/05/21 11:23:39;;;;;;;15.90;2.50;;;25.60;91.50;;;;;;5034358;28;20104;-62
2022/05/21 11:26:28;;;;;;;14.27;3.13;;;26.00;90.50;;;;;;5033972;28;20402;-64
2022/05/21 11:29:11;;;;;;;20.48;3.70;;;26.50;90.70;;;;;;5045294;28;20059;-65
2022/05/21 11:37:47;;;;;;;17.85;3.58;;;27.80;87.60;;;;;;5033782;28;20473;-66
2022/05/21 11:40:50;;;;;;;13.63;3.30;;;28.00;87.10;;;;;;5034198;28;20025;-66
2022/05/21 11:43:20;;;;;;;14.75;3.13;;;28.40;85.60;;;;;;5059497;28;20025;-66
2022/05/21 11:46:07;;;;;;;14.30;3.17;;;28.40;85.20;;;;;;5063510;28;20037;-64
2022/05/21 11:48:33;;;;;;;7.97;2.53;;;28.50;83.90;;;;;;5036163;28;20526;-66
2022/05/21 11:51:22;;;;;;;14.00;2.97;;;28.90;82.90;;;;;;5050443;28;20130;-64
2022/05/21 11:53:48;;;;;;;14.05;3.00;;;28.50;82.40;;;;;;5046163;28;20036;-64
2022/05/21 11:56:14;;;;;;;16.60;3.17;;;27.90;83.00;;;;;;5047443;28;20017;-66
2022/05/21 11:59:06;;;;;;;16.40;3.17;;;27.30;84.40;;;;;;5062087;28;20471;-66
2022/05/21 12:01:40;;;;;;;14.32;2.55;;;27.40;85.50;;;;;;5050846;28;20086;-65
2022/05/21 12:04:21;;;;;;;11.70;2.92;;;28.00;84.30;;;;;;5053139;28;20040;-65
2022/05/21 12:06:47;;;;;;;17.25;3.30;;;28.40;83.50;;;;;;5036399;28;20025;-64
2022/05/21 12:09:34;;;;;;;16.30;3.00;;;28.70;83.70;;;;;;5038267;28;20033;-66
2022/05/21 12:12:21;;;;;;;18.33;3.15;;;28.90;82.10;;;;;;5073356;28;20036;-65
2022/05/21 12:14:53;;;;;;;13.73;3.00;;;28.70;82.30;;;;;;5061773;28;20493;-64
2022/05/21 12:17:43;;;;;;;12.48;2.95;;;28.80;81.90;;;;;;5062972;28;20060;-65
2022/05/21 12:20:16;;;;;;;13.20;2.70;;;28.60;82.50;;;;;;5046086;28;20393;-64
2022/05/21 12:22:53;;;;;;;16.70;3.50;;;28.50;81.60;;;;;;5050733;28;20089;-65
2022/05/21 12:25:40;;;;;;;15.05;3.25;;;27.90;82.30;;;;;;5033120;28;20021;-66
2022/05/21 12:28:08;;;;;;;16.52;3.38;;;27.30;83.50;;;;;;5033287;28;20079;-67
2022/05/21 12:30:35;;;;;;;16.77;3.20;;;26.90;84.40;;;;;;5035054;28;20050;-68
2022/05/21 12:33:00;;;;;;;16.67;3.33;;;26.60;85.20;;;;;;5049163;28;20028;-65
2022/05/21 12:35:50;;;;;;;13.85;3.00;;;26.50;85.40;;;;;;5052887;28;20021;-66
2022/05/21 12:38:31;;;;;;;13.52;3.00;;;26.40;85.60;;;;;;5052978;28;20034;-64
2022/05/21 12:41:19;;;;;;;14.10;2.70;;;26.10;85.60;;;;;;5043048;28;20025;-65
2022/05/21 12:43:47;;;;;;;16.83;3.35;;;25.90;86.70;;;;;;5045239;28;20088;-64
2022/05/21 12:46:36;;;;;;;14.63;2.80;;;25.90;87.00;;;;;;5055429;28;20092;-64
2022/05/21 12:49:07;;;;;;;11.00;2.58;;;25.90;86.90;;;;;;5044845;28;20473;-64
2022/05/21 12:51:35;;;;;;;15.00;3.00;;;25.80;86.70;;;;;;5052383;28;20063;-64
2022/05/21 12:54:03;;;;;;;14.35;2.58;;;25.70;86.70;;;;;;5052694;28;20024;-65
2022/05/21 12:56:34;;;;;;;17.17;3.25;;;25.70;87.30;;;;;;5052769;28;20469;-64
2022/05/21 12:59:18;;;;;;;18.95;3.42;;;25.40;87.90;;;;;;5052428;28;20519;-65
2022/05/21 13:02:01;;;;;;;17.13;3.53;;;24.80;88.60;;;;;;5052275;28;20032;-64
2022/05/21 13:04:38;;;;;;;18.08;4.13;;;24.30;89.70;;;;;;5052622;28;20082;-64
2022/05/21 13:07:18;;;;;;;11.57;2.70;;;24.10;90.40;;;;;;5052721;28;20032;-63
2022/05/21 13:10:02;;;;;;;14.65;3.05;;;24.10;90.40;;;;;;5047814;28;20029;-65
2022/05/21 13:12:40;;;;;;;12.48;2.97;;;24.10;90.60;;;;;;5032443;28;20027;-66
2022/05/21 13:15:11;;;;;;;13.38;3.78;;;23.80;90.80;;;;;;5034575;28;20027;-67
2022/05/21 13:18:00;;;;;;;14.80;2.90;;;23.50;90.70;;;;;;5050806;28;20353;-64
2022/05/21 13:20:38;;;;;;;15.93;3.30;;;23.40;91.10;;;;;;5063146;28;20024;-65
2022/05/21 13:23:25;;;;;;;16.50;2.80;;;23.40;91.00;;;;;;5050364;28;20029;-64
2022/05/21 13:25:55;;;;;;;11.98;3.05;;;23.50;91.40;;;;;;5055005;28;20491;-66
2022/05/21 13:28:23;;;;;;;18.13;3.10;;;23.50;90.90;;;;;;5051765;28;20025;-65